sensor_id;sensor_type;location;lat;lon;timestamp;pressure;altitude;pressure_sealevel;temperature;humidity
64827;BME280;51265;53.972;12.286;2023-03-13T00:01:48;99561.25;;;4.17;100.00
64827;BME280;51265;53.972;12.286;2023-03-13T00:04:14;99553.63;;;4.14;100.00
64827;BME280;51265;53.972;12.286;2023-03-13T00:06:40;99546.50;;;4.18;100.00
64827;BME280;51265;53.972;12.286;2023-03-13T00:09:10;99532.94;;;4.13;100.00
64827;BME280;51265;53.972;12.286;2023-03-13T00:11:36;99539.44;;;4.17;100.00
64827;BME280;51265;53.972;12.286;2023-03-13T00:14:03;99546.50;;;4.18;100.00
64827;BME280;51265;53.972;12.286;2023-03-13T00:16:30;99538.59;;;4.21;100.00
64827;BME280;51265;53.972;12.286;2023-03-13T00:18:57;99542.13;;;4.22;100.00
64827;BME280;51265;53.972;12.286;2023-03-13T00:21:25;99542.13;;;4.22;100.00
64827;BME280;51265;53.972;12.286;2023-03-13T00:23:52;99541.31;;;4.21;100.00
64827;BME280;51265;53.972;12.286;2023-03-13T00:26:20;99530.97;;;4.23;100.00
64827;BME280;51265;53.972;12.286;2023-03-13T00:28:47;99527.34;;;4.33;100.00
64827;BME280;51265;53.972;12.286;2023-03-13T00:31:26;99524.59;;;4.33;100.00
64827;BME280;51265;53.972;12.286;2023-03-13T00:33:56;99530.59;;;4.35;100.00
64827;BME280;51265;53.972;12.286;2023-03-13T00:36:25;99517.50;;;4.37;100.00
64827;BME280;51265;53.972;12.286;2023-03-13T00:38:53;99529.47;;;4.41;100.00
64827;BME280;51265;53.972;12.286;2023-03-13T00:41:22;99516.94;;;4.40;100.00
64827;BME280;51265;53.972;12.286;2023-03-13T00:43:49;99517.44;;;4.42;100.00
64827;BME280;51265;53.972;12.286;2023-03-13T00:46:19;99518.56;;;4.41;100.00
64827;BME280;51265;53.972;12.286;2023-03-13T00:48:45;99517.50;;;4.37;100.00
64827;BME280;51265;53.972;12.286;2023-03-13T00:51:13;99511.47;;;4.40;100.00
64827;BME280;51265;53.972;12.286;2023-03-13T00:53:40;99506.06;;;4.35;100.00
64827;BME280;51265;53.972;12.286;2023-03-13T00:56:12;99513.09;;;4.41;100.00
64827;BME280;51265;53.972;12.286;2023-03-13T00:58:41;99505.47;;;4.43;100.00
64827;BME280;51265;53.972;12.286;2023-03-13T01:01:10;99506.53;;;4.47;100.00
64827;BME280;51265;53.972;12.286;2023-03-13T01:03:37;99495.63;;;4.47;100.00
64827;BME280;51265;53.972;12.286;2023-03-13T01:06:06;99498.84;;;4.49;100.00
64827;BME280;51265;53.972;12.286;2023-03-13T01:08:32;99491.78;;;4.48;100.00
64827;BME280;51265;53.972;12.286;2023-03-13T01:11:06;99484.72;;;4.47;100.00
64827;BME280;51265;53.972;12.286;2023-03-13T01:13:33;99481.13;;;4.52;100.00
64827;BME280;51265;53.972;12.286;2023-03-13T01:16:09;99481.94;;;4.53;100.00
64827;BME280;51265;53.972;12.286;2023-03-13T01:18:37;99475.31;;;4.59;100.00
64827;BME280;51265;53.972;12.286;2023-03-13T01:21:05;99485.09;;;4.65;100.00
64827;BME280;51265;53.972;12.286;2023-03-13T01:23:31;99485.34;;;4.68;100.00
64827;BME280;51265;53.972;12.286;2023-03-13T01:25:57;99472.97;;;4.76;100.00
64827;BME280;51265;53.972;12.286;2023-03-13T01:28:24;99472.44;;;4.74;100.00
64827;BME280;51265;53.972;12.286;2023-03-13T01:30:51;99472.97;;;4.76;100.00
64827;BME280;51265;53.972;12.286;2023-03-13T01:33:17;99475.59;;;4.86;100.00
64827;BME280;51265;53.972;12.286;2023-03-13T01:35:44;99471.19;;;4.90;100.00
64827;BME280;51265;53.972;12.286;2023-03-13T01:38:12;99469.22;;;4.96;100.00
64827;BME280;51265;53.972;12.286;2023-03-13T01:40:45;99461.91;;;4.91;100.00
64827;BME280;51265;53.972;12.286;2023-03-13T01:43:27;99464.06;;;4.94;100.00
64827;BME280;51265;53.972;12.286;2023-03-13T01:46:00;99463.41;;;5.03;100.00
64827;BME280;51265;53.972;12.286;2023-03-13T01:48:55;99454.69;;;5.00;100.00
64827;BME280;51265;53.972;12.286;2023-03-13T01:57:20;99449.53;;;5.23;100.00
64827;BME280;51265;53.972;12.286;2023-03-13T01:59:53;99435.66;;;5.19;100.00
64827;BME280;51265;53.972;12.286;2023-03-13T02:02:22;99426.94;;;5.17;100.00
64827;BME280;51265;53.972;12.286;2023-03-13T02:04:52;99420.59;;;5.22;100.00
64827;BME280;51265;53.972;12.286;2023-03-13T02:07:25;99408.59;;;5.23;100.00
64827;BME280;51265;53.972;12.286;2023-03-13T02:09:55;99410.78;;;5.21;100.00
64827;BME280;51265;53.972;12.286;2023-03-13T02:12:40;99409.81;;;5.31;100.00
64827;BME280;51265;53.972;12.286;2023-03-13T02:15:18;99413.31;;;5.36;100.00
64827;BME280;51265;53.972;12.286;2023-03-13T02:17:47;99406.50;;;5.34;100.00
64827;BME280;51265;53.972;12.286;2023-03-13T02:20:15;99403.44;;;5.40;100.00
64827;BME280;51265;53.972;12.286;2023-03-13T02:23:09;99385.06;;;5.27;100.00
64827;BME280;51265;53.972;12.286;2023-03-13T02:25:48;99385.22;;;5.36;100.00
64827;BME280;51265;53.972;12.286;2023-03-13T02:28:23;99387.63;;;5.37;100.00
64827;BME280;51265;53.972;12.286;2023-03-13T02:30:53;99378.31;;;5.38;100.00
64827;BME280;51265;53.972;12.286;2023-03-13T02:33:21;99371.25;;;5.37;100.00
64827;BME280;51265;53.972;12.286;2023-03-13T02:40:00;99357.91;;;5.36;100.00
64827;BME280;51265;53.972;12.286;2023-03-13T02:42:29;99370.13;;;5.38;100.00
64827;BME280;51265;53.972;12.286;2023-03-13T02:44:56;99359.75;;;5.40;100.00
64827;BME280;51265;53.972;12.286;2023-03-13T02:47:24;99366.81;;;5.41;100.00
64827;BME280;51265;53.972;12.286;2023-03-13T02:49:50;99354.88;;;5.37;100.00
64827;BME280;51265;53.972;12.286;2023-03-13T02:52:24;99360.25;;;5.42;100.00
64827;BME280;51265;53.972;12.286;2023-03-13T02:54:55;99349.41;;;5.37;100.00
64827;BME280;51265;53.972;12.286;2023-03-13T02:57:23;99348.75;;;5.45;100.00
64827;BME280;51265;53.972;12.286;2023-03-13T02:59:49;99346.59;;;5.42;100.00
64827;BME280;51265;53.972;12.286;2023-03-13T03:02:16;99342.78;;;5.43;100.00
64827;BME280;51265;53.972;12.286;2023-03-13T03:04:42;99324.84;;;5.37;100.00
64827;BME280;51265;53.972;12.286;2023-03-13T03:07:10;99331.91;;;5.38;100.00
64827;BME280;51265;53.972;12.286;2023-03-13T03:09:36;99315.47;;;5.43;100.00
64827;BME280;51265;53.972;12.286;2023-03-13T03:12:08;99328.16;;;5.34;100.00
64827;BME280;51265;53.972;12.286;2023-03-13T03:14:35;99313.41;;;5.35;100.00
64827;BME280;51265;53.972;12.286;2023-03-13T03:17:01;99318.41;;;5.28;100.00
64827;BME280;51265;53.972;12.286;2023-03-13T03:19:27;99320.03;;;5.29;100.00
64827;BME280;51265;53.972;12.286;2023-03-13T03:21:53;99309.69;;;5.26;100.00
64827;BME280;51265;53.972;12.286;2023-03-13T03:24:20;99318.13;;;5.30;100.00
64827;BME280;51265;53.972;12.286;2023-03-13T03:26:46;99301.59;;;5.21;100.00
64827;BME280;51265;53.972;12.286;2023-03-13T03:29:20;99308.41;;;5.23;100.00
64827;BME280;51265;53.972;12.286;2023-03-13T03:31:50;99303.34;;;5.31;100.00
64827;BME280;51265;53.972;12.286;2023-03-13T03:34:16;99297.97;;;5.25;100.00
64827;BME280;51265;53.972;12.286;2023-03-13T03:36:42;99291.72;;;5.25;100.00
64827;BME280;51265;53.972;12.286;2023-03-13T03:39:08;99290.00;;;5.29;100.00
64827;BME280;51265;53.972;12.286;2023-03-13T03:41:35;99284.06;;;5.27;100.00
64827;BME280;51265;53.972;12.286;2023-03-13T03:44:03;99283.88;;;5.37;100.00
64827;BME280;51265;53.972;12.286;2023-03-13T03:46:40;99270.31;;;5.32;100.00
64827;BME280;51265;53.972;12.286;2023-03-13T03:49:06;99268.47;;;5.28;100.00
64827;BME280;51265;53.972;12.286;2023-03-13T03:51:32;99264.28;;;5.35;100.00
64827;BME280;51265;53.972;12.286;2023-03-13T03:53:58;99256.66;;;5.32;100.00
64827;BME280;51265;53.972;12.286;2023-03-13T03:56:25;99250.69;;;5.30;100.00
64827;BME280;51265;53.972;12.286;2023-03-13T03:58:55;99240.88;;;5.29;100.00
64827;BME280;51265;53.972;12.286;2023-03-13T04:01:40;99235.09;;;5.31;100.00
64827;BME280;51265;53.972;12.286;2023-03-13T04:04:06;99226.41;;;5.29;100.00
64827;BME280;51265;53.972;12.286;2023-03-13T04:06:32;99225.03;;;5.31;100.00
64827;BME280;51265;53.972;12.286;2023-03-13T04:08:59;99228.84;;;5.30;100.00
64827;BME280;51265;53.972;12.286;2023-03-13T04:11:28;99218.72;;;5.31;100.00
64827;BME280;51265;53.972;12.286;2023-03-13T04:13:55;99212.47;;;5.30;100.00
64827;BME280;51265;53.972;12.286;2023-03-13T04:16:22;99205.97;;;5.26;100.00
64827;BME280;51265;53.972;12.286;2023-03-13T04:18:48;99198.94;;;5.39;100.00
64827;BME280;51265;53.972;12.286;2023-03-13T04:21:16;99200.34;;;5.36;100.00
64827;BME280;51265;53.972;12.286;2023-03-13T04:23:47;99193.09;;;5.45;100.00
64827;BME280;51265;53.972;12.286;2023-03-13T04:26:14;99187.03;;;5.48;100.00
64827;BME280;51265;53.972;12.286;2023-03-13T04:28:41;99176.72;;;5.45;100.00
64827;BME280;51265;53.972;12.286;2023-03-13T04:31:09;99180.56;;;5.44;100.00
64827;BME280;51265;53.972;12.286;2023-03-13T04:33:47;99171.25;;;5.45;100.00
64827;BME280;51265;53.972;12.286;2023-03-13T04:36:24;99171.03;;;5.42;100.00
64827;BME280;51265;53.972;12.286;2023-03-13T04:39:11;99150.69;;;5.34;100.00
64827;BME280;51265;53.972;12.286;2023-03-13T04:42:11;99154.53;;;5.33;100.00
64827;BME280;51265;53.972;12.286;2023-03-13T04:44:52;99141.72;;;5.47;100.00
64827;BME280;51265;53.972;12.286;2023-03-13T04:47:36;99136.88;;;5.44;100.00
64827;BME280;51265;53.972;12.286;2023-03-13T04:50:32;99129.16;;;5.46;100.00
64827;BME280;51265;53.972;12.286;2023-03-13T04:53:21;99125.41;;;5.42;100.00
64827;BME280;51265;53.972;12.286;2023-03-13T04:55:55;99121.59;;;5.43;100.00
64827;BME280;51265;53.972;12.286;2023-03-13T04:58:40;99110.97;;;5.42;100.00
64827;BME280;51265;53.972;12.286;2023-03-13T05:01:25;99105.81;;;5.40;100.00
64827;BME280;51265;53.972;12.286;2023-03-13T05:04:01;99094.19;;;5.48;100.00
64827;BME280;51265;53.972;12.286;2023-03-13T05:07:03;99080.81;;;5.47;100.00
64827;BME280;51265;53.972;12.286;2023-03-13T05:09:47;99084.88;;;5.49;100.00
64827;BME280;51265;53.972;12.286;2023-03-13T05:12:43;99075.56;;;5.50;100.00
64827;BME280;51265;53.972;12.286;2023-03-13T05:15:16;99066.91;;;5.48;100.00
64827;BME280;51265;53.972;12.286;2023-03-13T05:18:10;99063.63;;;5.46;100.00
64827;BME280;51265;53.972;12.286;2023-03-13T05:21:16;99059.78;;;5.47;100.00
64827;BME280;51265;53.972;12.286;2023-03-13T05:24:01;99042.59;;;5.47;100.00
64827;BME280;51265;53.972;12.286;2023-03-13T05:26:40;99036.22;;;5.52;100.00
64827;BME280;51265;53.972;12.286;2023-03-13T05:29:24;99029.84;;;5.42;100.00
64827;BME280;51265;53.972;12.286;2023-03-13T05:31:59;99014.28;;;5.43;100.00
64827;BME280;51265;53.972;12.286;2023-03-13T05:35:00;99019.94;;;5.46;100.00
64827;BME280;51265;53.972;12.286;2023-03-13T05:37:32;99017.75;;;5.48;100.00
64827;BME280;51265;53.972;12.286;2023-03-13T05:40:14;99000.84;;;5.46;100.00
64827;BME280;51265;53.972;12.286;2023-03-13T05:42:52;98999.53;;;5.58;100.00
64827;BME280;51265;53.972;12.286;2023-03-13T05:45:39;98982.34;;;5.57;100.00
64827;BME280;51265;53.972;12.286;2023-03-13T05:48:31;98980.31;;;5.49;100.00
64827;BME280;51265;53.972;12.286;2023-03-13T05:51:05;98973.41;;;5.52;100.00
64827;BME280;51265;53.972;12.286;2023-03-13T05:53:47;98971.59;;;5.61;100.00
64827;BME280;51265;53.972;12.286;2023-03-13T05:56:32;98967.34;;;5.55;100.00
64827;BME280;51265;53.972;12.286;2023-03-13T05:59:21;98944.28;;;5.61;100.00
64827;BME280;51265;53.972;12.286;2023-03-13T06:02:13;98957.03;;;5.65;100.00
64827;BME280;51265;53.972;12.286;2023-03-13T06:04:44;98944.19;;;5.66;100.00
64827;BME280;51265;53.972;12.286;2023-03-13T06:07:10;98949.03;;;5.69;100.00
64827;BME280;51265;53.972;12.286;2023-03-13T06:09:37;98947.47;;;5.77;100.00
64827;BME280;51265;53.972;12.286;2023-03-13T06:12:03;98933.13;;;5.71;100.00
64827;BME280;51265;53.972;12.286;2023-03-13T06:14:30;98928.66;;;5.75;100.00
64827;BME280;51265;53.972;12.286;2023-03-13T06:17:06;98924.09;;;5.84;100.00
64827;BME280;51265;53.972;12.286;2023-03-13T06:19:32;98916.06;;;5.88;100.00
64827;BME280;51265;53.972;12.286;2023-03-13T06:21:58;98922.34;;;5.88;100.00
64827;BME280;51265;53.972;12.286;2023-03-13T06:24:24;98913.03;;;5.89;100.00
64827;BME280;51265;53.972;12.286;2023-03-13T06:26:50;98922.44;;;5.97;100.00
64827;BME280;51265;53.972;12.286;2023-03-13T06:29:17;98900.50;;;5.88;100.00
64827;BME280;51265;53.972;12.286;2023-03-13T06:31:43;98903.13;;;5.93;100.00
64827;BME280;51265;53.972;12.286;2023-03-13T06:34:11;98889.97;;;5.95;100.00
64827;BME280;51265;53.972;12.286;2023-03-13T06:36:37;98889.97;;;5.95;100.00
64827;BME280;51265;53.972;12.286;2023-03-13T06:39:04;98888.09;;;6.05;100.00
64827;BME280;51265;53.972;12.286;2023-03-13T06:41:30;98883.16;;;6.07;100.00
64827;BME280;51265;53.972;12.286;2023-03-13T06:43:57;98885.25;;;6.10;100.00
64827;BME280;51265;53.972;12.286;2023-03-13T06:46:24;98868.88;;;6.18;100.00
64827;BME280;51265;53.972;12.286;2023-03-13T06:48:51;98868.84;;;6.10;100.00
64827;BME280;51265;53.972;12.286;2023-03-13T06:51:19;98870.47;;;6.11;100.00
64827;BME280;51265;53.972;12.286;2023-03-13T06:53:46;98862.13;;;6.16;100.00
64827;BME280;51265;53.972;12.286;2023-03-13T06:56:13;98863.50;;;6.27;100.00
64827;BME280;51265;53.972;12.286;2023-03-13T06:58:39;98848.94;;;6.18;100.00
64827;BME280;51265;53.972;12.286;2023-03-13T07:01:07;98851.56;;;6.23;100.00
64827;BME280;51265;53.972;12.286;2023-03-13T07:03:35;98855.59;;;6.26;100.00
64827;BME280;51265;53.972;12.286;2023-03-13T07:06:02;98854.19;;;6.28;100.00
64827;BME280;51265;53.972;12.286;2023-03-13T07:08:29;98842.09;;;6.29;100.00
64827;BME280;51265;53.972;12.286;2023-03-13T07:11:00;98836.97;;;6.28;100.00
64827;BME280;51265;53.972;12.286;2023-03-13T07:13:27;98827.69;;;6.37;100.00
64827;BME280;51265;53.972;12.286;2023-03-13T07:15:53;98812.41;;;6.36;100.00
64827;BME280;51265;53.972;12.286;2023-03-13T07:18:21;98807.91;;;6.40;100.00
64827;BME280;51265;53.972;12.286;2023-03-13T07:20:54;98800.19;;;6.42;100.00
64827;BME280;51265;53.972;12.286;2023-03-13T07:23:22;98797.78;;;6.41;100.00
64827;BME280;51265;53.972;12.286;2023-03-13T07:26:00;98783.59;;;6.39;100.00
64827;BME280;51265;53.972;12.286;2023-03-13T07:28:29;98776.19;;;6.39;100.00
64827;BME280;51265;53.972;12.286;2023-03-13T07:31:27;98769.03;;;6.52;100.00
64827;BME280;51265;53.972;12.286;2023-03-13T07:33:53;98764.22;;;6.58;100.00
64827;BME280;51265;53.972;12.286;2023-03-13T07:36:21;98753.72;;;6.51;100.00
64827;BME280;51265;53.972;12.286;2023-03-13T07:38:49;98749.06;;;6.52;100.00
64827;BME280;51265;53.972;12.286;2023-03-13T07:41:16;98756.47;;;6.60;100.00
64827;BME280;51265;53.972;12.286;2023-03-13T07:43:42;98744.25;;;6.48;100.00
64827;BME280;51265;53.972;12.286;2023-03-13T07:46:11;98745.06;;;6.58;100.00
64827;BME280;51265;53.972;12.286;2023-03-13T07:48:40;98742.34;;;6.58;100.00
64827;BME280;51265;53.972;12.286;2023-03-13T07:51:12;98724.63;;;6.64;100.00
64827;BME280;51265;53.972;12.286;2023-03-13T07:53:38;98732.72;;;6.69;100.00
64827;BME280;51265;53.972;12.286;2023-03-13T07:56:07;98728.47;;;6.54;100.00
64827;BME280;51265;53.972;12.286;2023-03-13T07:58:36;98722.41;;;6.66;100.00
64827;BME280;51265;53.972;12.286;2023-03-13T08:01:20;98715.63;;;6.72;100.00
64827;BME280;51265;53.972;12.286;2023-03-13T08:03:46;98707.59;;;6.76;100.00
64827;BME280;51265;53.972;12.286;2023-03-13T08:06:18;98703.44;;;6.78;100.00
64827;BME280;51265;53.972;12.286;2023-03-13T08:08:45;98700.19;;;6.76;100.00
64827;BME280;51265;53.972;12.286;2023-03-13T08:11:17;98694.72;;;6.76;100.00
64827;BME280;51265;53.972;12.286;2023-03-13T08:13:44;98692.78;;;6.85;100.00
64827;BME280;51265;53.972;12.286;2023-03-13T08:16:13;98693.75;;;6.89;100.00
64827;BME280;51265;53.972;12.286;2023-03-13T08:18:42;98685.88;;;6.96;100.00
64827;BME280;51265;53.972;12.286;2023-03-13T08:21:11;98681.19;;;7.06;100.00
64827;BME280;51265;53.972;12.286;2023-03-13T08:23:38;98682.84;;;7.07;100.00
64827;BME280;51265;53.972;12.286;2023-03-13T08:26:12;98677.03;;;7.08;100.00
64827;BME280;51265;53.972;12.286;2023-03-13T08:28:39;98672.84;;;7.11;100.00
64827;BME280;51265;53.972;12.286;2023-03-13T08:31:15;98677.50;;;7.10;100.00
64827;BME280;51265;53.972;12.286;2023-03-13T08:33:43;98663.69;;;7.07;100.00
64827;BME280;51265;53.972;12.286;2023-03-13T08:36:18;98655.13;;;6.99;100.00
64827;BME280;51265;53.972;12.286;2023-03-13T08:38:46;98655.13;;;6.99;100.00
64827;BME280;51265;53.972;12.286;2023-03-13T08:41:36;98655.94;;;7.09;100.00
64827;BME280;51265;53.972;12.286;2023-03-13T08:44:03;98651.25;;;7.18;100.00
64827;BME280;51265;53.972;12.286;2023-03-13T08:46:31;98660.41;;;7.31;100.00
64827;BME280;51265;53.972;12.286;2023-03-13T08:48:59;98651.56;;;7.25;100.00
64827;BME280;51265;53.972;12.286;2023-03-13T08:51:27;98638.84;;;7.29;100.00
64827;BME280;51265;53.972;12.286;2023-03-13T08:53:54;98631.56;;;7.33;100.00
64827;BME280;51265;53.972;12.286;2023-03-13T08:56:25;98629.31;;;7.27;100.00
64827;BME280;51265;53.972;12.286;2023-03-13T08:58:54;98638.97;;;7.41;100.00
64827;BME280;51265;53.972;12.286;2023-03-13T09:01:23;98626.22;;;7.45;100.00
64827;BME280;51265;53.972;12.286;2023-03-13T09:03:49;98606.88;;;7.51;100.00
64827;BME280;51265;53.972;12.286;2023-03-13T09:06:16;98610.91;;;7.53;100.00
64827;BME280;51265;53.972;12.286;2023-03-13T09:08:42;98608.13;;;7.62;100.00
64827;BME280;51265;53.972;12.286;2023-03-13T09:11:14;98600.19;;;7.69;100.00
64827;BME280;51265;53.972;12.286;2023-03-13T09:13:43;98596.03;;;7.63;100.00
64827;BME280;51265;53.972;12.286;2023-03-13T09:16:12;98603.41;;;7.71;100.00
64827;BME280;51265;53.972;12.286;2023-03-13T09:18:40;98611.75;;;7.83;100.00
64827;BME280;51265;53.972;12.286;2023-03-13T09:21:09;98592.41;;;7.80;100.00
64827;BME280;51265;53.972;12.286;2023-03-13T09:23:37;98578.47;;;7.93;100.00
64827;BME280;51265;53.972;12.286;2023-03-13T09:26:03;98569.50;;;7.84;100.00
64827;BME280;51265;53.972;12.286;2023-03-13T09:28:30;98573.19;;;7.88;100.00
64827;BME280;51265;53.972;12.286;2023-03-13T09:31:05;98579.41;;;7.97;100.00
64827;BME280;51265;53.972;12.286;2023-03-13T09:33:32;98578.38;;;8.11;100.00
64827;BME280;51265;53.972;12.286;2023-03-13T09:35:58;98570.78;;;8.16;100.00
64827;BME280;51265;53.972;12.286;2023-03-13T09:38:25;98561.59;;;8.12;100.00
64827;BME280;51265;53.972;12.286;2023-03-13T09:40:52;98561.53;;;8.21;100.00
64827;BME280;51265;53.972;12.286;2023-03-13T09:46:37;98550.84;;;8.28;100.00
64827;BME280;51265;53.972;12.286;2023-03-13T09:49:13;98553.38;;;8.33;100.00
64827;BME280;51265;53.972;12.286;2023-03-13T09:51:43;98553.38;;;8.33;100.00
64827;BME280;51265;53.972;12.286;2023-03-13T09:56:51;98531.19;;;8.47;100.00
64827;BME280;51265;53.972;12.286;2023-03-13T09:59:23;98544.84;;;8.56;100.00
64827;BME280;51265;53.972;12.286;2023-03-13T10:01:54;98539.34;;;8.56;100.00
64827;BME280;51265;53.972;12.286;2023-03-13T10:04:34;98556.09;;;8.63;100.00
64827;BME280;51265;53.972;12.286;2023-03-13T10:07:03;98541.22;;;8.64;100.00
64827;BME280;51265;53.972;12.286;2023-03-13T10:09:31;98538.13;;;8.86;100.00
64827;BME280;51265;53.972;12.286;2023-03-13T10:14:42;98534.31;;;9.12;100.00
64827;BME280;51265;53.972;12.286;2023-03-13T10:17:21;98529.22;;;9.02;100.00
64827;BME280;51265;53.972;12.286;2023-03-13T10:19:59;98514.59;;;9.10;100.00
64827;BME280;51265;53.972;12.286;2023-03-13T10:22:28;98529.94;;;9.23;100.00
64827;BME280;51265;53.972;12.286;2023-03-13T10:25:03;98519.91;;;9.39;100.00
64827;BME280;51265;53.972;12.286;2023-03-13T10:27:42;98524.16;;;9.37;100.00
64827;BME280;51265;53.972;12.286;2023-03-13T10:30:21;98528.03;;;9.36;100.00
64827;BME280;51265;53.972;12.286;2023-03-13T10:32:49;98519.47;;;9.37;100.00
64827;BME280;51265;53.972;12.286;2023-03-13T10:35:22;98524.06;;;9.58;100.00
64827;BME280;51265;53.972;12.286;2023-03-13T10:37:49;98504.03;;;9.45;100.00
64827;BME280;51265;53.972;12.286;2023-03-13T10:40:26;98521.75;;;9.47;100.00
64827;BME280;51265;53.972;12.286;2023-03-13T10:43:00;98511.22;;;9.50;100.00
64827;BME280;51265;53.972;12.286;2023-03-13T10:45:31;98499.31;;;9.45;100.00
64827;BME280;51265;53.972;12.286;2023-03-13T10:48:23;98500.25;;;9.50;100.00
64827;BME280;51265;53.972;12.286;2023-03-13T10:50:53;98511.56;;;9.60;100.00
64827;BME280;51265;53.972;12.286;2023-03-13T10:56:02;98513.63;;;9.76;100.00
64827;BME280;51265;53.972;12.286;2023-03-13T10:58:41;98502.50;;;9.84;100.00
64827;BME280;51265;53.972;12.286;2023-03-13T11:01:22;98499.50;;;10.02;100.00
64827;BME280;51265;53.972;12.286;2023-03-13T11:03:51;98493.97;;;10.14;100.00
64827;BME280;51265;53.972;12.286;2023-03-13T11:06:30;98495.53;;;10.39;100.00
64827;BME280;51265;53.972;12.286;2023-03-13T11:11:46;98475.16;;;10.28;100.00
64827;BME280;51265;53.972;12.286;2023-03-13T11:14:16;98464.16;;;10.28;100.00
64827;BME280;51265;53.972;12.286;2023-03-13T11:22:05;98471.38;;;10.20;100.00
64827;BME280;51265;53.972;12.286;2023-03-13T11:30:18;98465.78;;;10.29;100.00
64827;BME280;51265;53.972;12.286;2023-03-13T11:32:53;98471.03;;;10.22;100.00
64827;BME280;51265;53.972;12.286;2023-03-13T11:35:25;98470.66;;;10.36;100.00
64827;BME280;51265;53.972;12.286;2023-03-13T11:37:55;98469.78;;;10.60;100.00
64827;BME280;51265;53.972;12.286;2023-03-13T11:51:08;98450.59;;;11.90;100.00
64827;BME280;51265;53.972;12.286;2023-03-13T11:59:31;98446.06;;;12.17;100.00
64827;BME280;51265;53.972;12.286;2023-03-13T12:04:49;98440.16;;;12.18;100.00
64827;BME280;51265;53.972;12.286;2023-03-13T12:07:26;98435.16;;;12.24;100.00
64827;BME280;51265;53.972;12.286;2023-03-13T12:10:21;98440.91;;;12.54;100.00
64827;BME280;51265;53.972;12.286;2023-03-13T12:13:04;98422.63;;;12.69;100.00
64827;BME280;51265;53.972;12.286;2023-03-13T12:15:42;98405.31;;;12.72;100.00
64827;BME280;51265;53.972;12.286;2023-03-13T12:18:22;98400.81;;;12.83;100.00
64827;BME280;51265;53.972;12.286;2023-03-13T12:26:17;98387.03;;;13.10;100.00
64827;BME280;51265;53.972;12.286;2023-03-13T12:32:03;98385.44;;;13.58;100.00
64827;BME280;51265;53.972;12.286;2023-03-13T12:34:50;98368.88;;;13.62;100.00
64827;BME280;51265;53.972;12.286;2023-03-13T12:37:36;98370.59;;;13.70;100.00
64827;BME280;51265;53.972;12.286;2023-03-13T12:43:03;98356.41;;;13.75;100.00
64827;BME280;51265;53.972;12.286;2023-03-13T12:45:37;98354.44;;;14.06;100.00
64827;BME280;51265;53.972;12.286;2023-03-13T12:50:58;98322.31;;;13.64;100.00
64827;BME280;51265;53.972;12.286;2023-03-13T12:56:37;98320.50;;;14.09;100.00
64827;BME280;51265;53.972;12.286;2023-03-13T12:59:27;98330.47;;;14.51;100.00
64827;BME280;51265;53.972;12.286;2023-03-13T13:01:56;98291.28;;;14.15;100.00
64827;BME280;51265;53.972;12.286;2023-03-13T13:04:26;98285.13;;;14.32;100.00
64827;BME280;51265;53.972;12.286;2023-03-13T13:07:05;98257.44;;;14.32;100.00
64827;BME280;51265;53.972;12.286;2023-03-13T13:09:34;98249.16;;;14.77;100.00
64827;BME280;51265;53.972;12.286;2023-03-13T13:12:21;98215.63;;;14.44;100.00
64827;BME280;51265;53.972;12.286;2023-03-13T13:20:27;98177.41;;;14.13;100.00
64827;BME280;51265;53.972;12.286;2023-03-13T13:22:55;98192.81;;;14.55;100.00
64827;BME280;51265;53.972;12.286;2023-03-13T13:30:39;98108.50;;;15.39;100.00
64827;BME280;51265;53.972;12.286;2023-03-13T13:38:31;98073.50;;;14.99;100.00
64827;BME280;51265;53.972;12.286;2023-03-13T13:43:31;98084.72;;;15.45;100.00
64827;BME280;51265;53.972;12.286;2023-03-13T13:46:04;98092.69;;;15.58;100.00
64827;BME280;51265;53.972;12.286;2023-03-13T13:48:40;98072.13;;;15.73;100.00
64827;BME280;51265;53.972;12.286;2023-03-13T14:01:25;98027.59;;;15.09;100.00
64827;BME280;51265;53.972;12.286;2023-03-13T14:03:56;98018.09;;;15.03;100.00
64827;BME280;51265;53.972;12.286;2023-03-13T14:06:26;98018.16;;;15.28;100.00
64827;BME280;51265;53.972;12.286;2023-03-13T14:09:01;98003.88;;;15.22;100.00
64827;BME280;51265;53.972;12.286;2023-03-13T14:11:37;97991.22;;;15.28;100.00
64827;BME280;51265;53.972;12.286;2023-03-13T14:14:16;97995.19;;;15.49;100.00
64827;BME280;51265;53.972;12.286;2023-03-13T14:16:48;97984.47;;;15.51;100.00
64827;BME280;51265;53.972;12.286;2023-03-13T14:19:36;97961.13;;;15.52;100.00
64827;BME280;51265;53.972;12.286;2023-03-13T14:22:07;97938.13;;;15.55;100.00
64827;BME280;51265;53.972;12.286;2023-03-13T14:24:34;97943.69;;;15.83;100.00
64827;BME280;51265;53.972;12.286;2023-03-13T14:27:01;97925.31;;;16.36;100.00
64827;BME280;51265;53.972;12.286;2023-03-13T14:29:27;97882.28;;;16.76;96.64
64827;BME280;51265;53.972;12.286;2023-03-13T14:31:58;97852.19;;;16.53;94.35
64827;BME280;51265;53.972;12.286;2023-03-13T14:34:26;97829.22;;;16.46;92.97
64827;BME280;51265;53.972;12.286;2023-03-13T14:36:54;97826.09;;;16.40;93.18
64827;BME280;51265;53.972;12.286;2023-03-13T14:42:10;97784.63;;;16.01;91.31
64827;BME280;51265;53.972;12.286;2023-03-13T14:44:37;97779.16;;;15.86;92.13
64827;BME280;51265;53.972;12.286;2023-03-13T14:47:20;97797.84;;;15.61;92.99
64827;BME280;51265;53.972;12.286;2023-03-13T14:49:56;97805.84;;;15.30;95.30
64827;BME280;51265;53.972;12.286;2023-03-13T14:52:25;97816.94;;;15.30;95.86
64827;BME280;51265;53.972;12.286;2023-03-13T14:57:20;97843.06;;;15.08;99.20
64827;BME280;51265;53.972;12.286;2023-03-13T14:59:48;97857.31;;;15.24;100.00